sensor_id;sensor_type;location;lat;lon;timestamp;pressure;altitude;pressure_sealevel;temperature;humidity
62791;BME280;48830;53.426;10.300;2023-05-16T00:02:07;101187.88;;;11.53;100.00
62791;BME280;48830;53.426;10.300;2023-05-16T00:04:33;101195.59;;;11.53;100.00
62791;BME280;48830;53.426;10.300;2023-05-16T00:06:58;101189.59;;;11.54;100.00
62791;BME280;48830;53.426;10.300;2023-05-16T00:09:23;101187.88;;;11.53;100.00
62791;BME280;48830;53.426;10.300;2023-05-16T00:11:49;101198.28;;;11.59;100.00
62791;BME280;48830;53.426;10.300;2023-05-16T00:14:15;101196.56;;;11.61;100.00
62791;BME280;48830;53.426;10.300;2023-05-16T00:16:41;101194.81;;;11.57;100.00
62791;BME280;48830;53.426;10.300;2023-05-16T00:19:06;101191.28;;;11.52;100.00
62791;BME280;48830;53.426;10.300;2023-05-16T00:21:32;101201.69;;;11.58;100.00
62791;BME280;48830;53.426;10.300;2023-05-16T00:23:57;101210.19;;;11.54;100.00
62791;BME280;48830;53.426;10.300;2023-05-16T00:26:23;101204.19;;;11.53;100.00
62791;BME280;48830;53.426;10.300;2023-05-16T00:28:48;101208.41;;;11.51;100.00
62791;BME280;48830;53.426;10.300;2023-05-16T00:31:14;101207.63;;;11.54;100.00
62791;BME280;48830;53.426;10.300;2023-05-16T00:33:39;101206.72;;;11.52;100.00
62791;BME280;48830;53.426;10.300;2023-05-16T00:36:05;101199.97;;;11.57;100.00
62791;BME280;48830;53.426;10.300;2023-05-16T00:38:30;101197.34;;;11.55;100.00
62791;BME280;48830;53.426;10.300;2023-05-16T00:40:56;101196.44;;;11.52;100.00
62791;BME280;48830;53.426;10.300;2023-05-16T00:43:21;101208.56;;;11.59;100.00
62791;BME280;48830;53.426;10.300;2023-05-16T00:45:49;101210.28;;;11.60;100.00
62791;BME280;48830;53.426;10.300;2023-05-16T00:48:14;101206.94;;;11.64;100.00
62791;BME280;48830;53.426;10.300;2023-05-16T00:50:40;101216.28;;;11.59;100.00
62791;BME280;48830;53.426;10.300;2023-05-16T00:53:06;101205.13;;;11.57;100.00
62791;BME280;48830;53.426;10.300;2023-05-16T00:55:32;101212.84;;;11.57;100.00
62791;BME280;48830;53.426;10.300;2023-05-16T00:57:59;101223.09;;;11.55;100.00
62791;BME280;48830;53.426;10.300;2023-05-16T01:00:25;101224.00;;;11.59;100.00
62791;BME280;48830;53.426;10.300;2023-05-16T01:02:51;101219.81;;;11.64;100.00
62791;BME280;48830;53.426;10.300;2023-05-16T01:05:21;101212.88;;;11.62;100.00
62791;BME280;48830;53.426;10.300;2023-05-16T01:07:46;101220.81;;;11.72;100.00
62791;BME280;48830;53.426;10.300;2023-05-16T01:10:12;101219.94;;;11.72;100.00
62791;BME280;48830;53.426;10.300;2023-05-16T01:12:47;101213.75;;;11.62;100.00
62791;BME280;48830;53.426;10.300;2023-05-16T01:15:25;101226.69;;;11.65;100.00
62791;BME280;48830;53.426;10.300;2023-05-16T01:18:00;101221.56;;;11.67;100.00
62791;BME280;48830;53.426;10.300;2023-05-16T01:23:19;101230.31;;;11.76;100.00
62791;BME280;48830;53.426;10.300;2023-05-16T01:26:20;101229.53;;;11.79;100.00
62791;BME280;48830;53.426;10.300;2023-05-16T01:28:48;101232.91;;;11.76;100.00
62791;BME280;48830;53.426;10.300;2023-05-16T01:31:14;101220.03;;;11.78;100.00
62791;BME280;48830;53.426;10.300;2023-05-16T01:33:40;101221.06;;;11.85;100.00
62791;BME280;48830;53.426;10.300;2023-05-16T01:39:06;101220.31;;;11.90;100.00
62791;BME280;48830;53.426;10.300;2023-05-16T01:42:04;101218.59;;;11.91;100.00
62791;BME280;48830;53.426;10.300;2023-05-16T01:44:42;101216.06;;;11.94;100.00
62791;BME280;48830;53.426;10.300;2023-05-16T01:47:11;101211.84;;;11.99;100.00
62791;BME280;48830;53.426;10.300;2023-05-16T01:52:18;101212.66;;;11.95;100.00
62791;BME280;48830;53.426;10.300;2023-05-16T01:54:47;101217.81;;;11.96;100.00
62791;BME280;48830;53.426;10.300;2023-05-16T01:57:15;101212.59;;;11.92;100.00
62791;BME280;48830;53.426;10.300;2023-05-16T01:59:40;101215.34;;;12.01;100.00
62791;BME280;48830;53.426;10.300;2023-05-16T02:02:09;101211.00;;;12.00;100.00
62791;BME280;48830;53.426;10.300;2023-05-16T02:04:36;101217.81;;;11.95;100.00
62791;BME280;48830;53.426;10.300;2023-05-16T02:07:02;101214.41;;;11.99;100.00
62791;BME280;48830;53.426;10.300;2023-05-16T02:09:28;101216.28;;;12.06;100.00
62791;BME280;48830;53.426;10.300;2023-05-16T02:11:53;101216.28;;;12.07;100.00
62791;BME280;48830;53.426;10.300;2023-05-16T02:14:19;101224.81;;;12.05;100.00
62791;BME280;48830;53.426;10.300;2023-05-16T02:16:44;101219.56;;;11.99;100.00
62791;BME280;48830;53.426;10.300;2023-05-16T02:19:10;101220.47;;;12.01;100.00
62791;BME280;48830;53.426;10.300;2023-05-16T02:21:37;101216.13;;;11.97;100.00
62791;BME280;48830;53.426;10.300;2023-05-16T02:24:03;101220.41;;;11.96;100.00
62791;BME280;48830;53.426;10.300;2023-05-16T02:26:29;101218.72;;;12.00;100.00
62791;BME280;48830;53.426;10.300;2023-05-16T02:28:54;101222.13;;;11.96;100.00
62791;BME280;48830;53.426;10.300;2023-05-16T02:31:27;101218.63;;;11.94;100.00
62791;BME280;48830;53.426;10.300;2023-05-16T02:33:53;101221.28;;;11.97;100.00
62791;BME280;48830;53.426;10.300;2023-05-16T02:36:19;101227.28;;;11.96;100.00
62791;BME280;48830;53.426;10.300;2023-05-16T02:38:45;101237.44;;;11.88;100.00
62791;BME280;48830;53.426;10.300;2023-05-16T02:41:11;101239.13;;;11.86;100.00
62791;BME280;48830;53.426;10.300;2023-05-16T02:43:36;101245.25;;;11.93;100.00
62791;BME280;48830;53.426;10.300;2023-05-16T02:46:22;101245.13;;;11.85;100.00
62791;BME280;48830;53.426;10.300;2023-05-16T02:48:49;101246.75;;;11.81;100.00
62791;BME280;48830;53.426;10.300;2023-05-16T02:51:16;101256.06;;;11.75;100.00
62791;BME280;48830;53.426;10.300;2023-05-16T02:53:42;101252.72;;;11.80;100.00
62791;BME280;48830;53.426;10.300;2023-05-16T02:56:07;101256.94;;;11.75;100.00
62791;BME280;48830;53.426;10.300;2023-05-16T02:58:34;101260.28;;;11.71;100.00
62791;BME280;48830;53.426;10.300;2023-05-16T03:01:00;101262.00;;;11.72;100.00
62791;BME280;48830;53.426;10.300;2023-05-16T03:03:25;101267.22;;;11.75;100.00
62791;BME280;48830;53.426;10.300;2023-05-16T03:05:51;101273.13;;;11.70;100.00
62791;BME280;48830;53.426;10.300;2023-05-16T03:08:16;101274.88;;;11.71;100.00
62791;BME280;48830;53.426;10.300;2023-05-16T03:10:42;101281.81;;;11.73;100.00
62791;BME280;48830;53.426;10.300;2023-05-16T03:13:07;101279.22;;;11.73;100.00
62791;BME280;48830;53.426;10.300;2023-05-16T03:15:32;101279.28;;;11.78;100.00
62791;BME280;48830;53.426;10.300;2023-05-16T03:17:58;101275.72;;;11.71;100.00
62791;BME280;48830;53.426;10.300;2023-05-16T03:20:23;101282.56;;;11.69;100.00
62791;BME280;48830;53.426;10.300;2023-05-16T03:22:49;101285.13;;;11.68;100.00
62791;BME280;48830;53.426;10.300;2023-05-16T03:25:14;101282.50;;;11.66;100.00
62791;BME280;48830;53.426;10.300;2023-05-16T03:27:40;101291.91;;;11.64;100.00
62791;BME280;48830;53.426;10.300;2023-05-16T03:30:06;101296.22;;;11.65;100.00
62791;BME280;48830;53.426;10.300;2023-05-16T03:32:32;101296.22;;;11.64;100.00
62791;BME280;48830;53.426;10.300;2023-05-16T03:34:57;101290.97;;;11.59;100.00
62791;BME280;48830;53.426;10.300;2023-05-16T03:37:23;101302.09;;;11.58;100.00
62791;BME280;48830;53.426;10.300;2023-05-16T03:39:48;101290.13;;;11.60;100.00
62791;BME280;48830;53.426;10.300;2023-05-16T03:42:14;101290.97;;;11.59;100.00
62791;BME280;48830;53.426;10.300;2023-05-16T03:44:39;101296.22;;;11.64;100.00
62791;BME280;48830;53.426;10.300;2023-05-16T03:47:05;101292.88;;;11.69;100.00
62791;BME280;48830;53.426;10.300;2023-05-16T03:49:31;101286.66;;;11.58;100.00
62791;BME280;48830;53.426;10.300;2023-05-16T03:51:56;101294.41;;;11.61;100.00
62791;BME280;48830;53.426;10.300;2023-05-16T03:54:21;101287.50;;;11.57;100.00
62791;BME280;48830;53.426;10.300;2023-05-16T03:56:47;101298.63;;;11.56;98.73
62791;BME280;48830;53.426;10.300;2023-05-16T03:59:12;101306.41;;;11.59;98.85
62791;BME280;48830;53.426;10.300;2023-05-16T04:01:38;101306.34;;;11.56;98.13
62791;BME280;48830;53.426;10.300;2023-05-16T04:04:03;101317.47;;;11.55;98.01
62791;BME280;48830;53.426;10.300;2023-05-16T04:06:29;101326.13;;;11.57;97.54
62791;BME280;48830;53.426;10.300;2023-05-16T04:08:54;101326.84;;;11.51;97.35
62791;BME280;48830;53.426;10.300;2023-05-16T04:11:20;101329.41;;;11.51;96.64
62791;BME280;48830;53.426;10.300;2023-05-16T04:13:46;101325.19;;;11.55;94.73
62791;BME280;48830;53.426;10.300;2023-05-16T04:16:11;101330.22;;;11.49;93.81
62791;BME280;48830;53.426;10.300;2023-05-16T04:18:37;101329.34;;;11.47;93.87
62791;BME280;48830;53.426;10.300;2023-05-16T04:21:02;101337.13;;;11.50;93.60
62791;BME280;48830;53.426;10.300;2023-05-16T04:23:28;101345.69;;;11.49;92.10
62791;BME280;48830;53.426;10.300;2023-05-16T04:25:54;101347.28;;;11.44;91.89
62791;BME280;48830;53.426;10.300;2023-05-16T04:28:21;101356.81;;;11.46;91.50
62791;BME280;48830;53.426;10.300;2023-05-16T04:30:47;101357.59;;;11.45;91.65
62791;BME280;48830;53.426;10.300;2023-05-16T04:33:13;101359.41;;;11.48;91.86
62791;BME280;48830;53.426;10.300;2023-05-16T04:35:38;101365.50;;;11.53;91.59
62791;BME280;48830;53.426;10.300;2023-05-16T04:38:04;101366.28;;;11.49;92.08
62791;BME280;48830;53.426;10.300;2023-05-16T04:40:29;101373.22;;;11.53;92.37
62791;BME280;48830;53.426;10.300;2023-05-16T04:42:55;101366.47;;;11.58;92.03
62791;BME280;48830;53.426;10.300;2023-05-16T04:45:20;101370.59;;;11.51;92.32
62791;BME280;48830;53.426;10.300;2023-05-16T04:47:46;101370.81;;;11.61;92.16
62791;BME280;48830;53.426;10.300;2023-05-16T04:50:12;101373.50;;;11.67;91.03
62791;BME280;48830;53.426;10.300;2023-05-16T04:52:37;101370.06;;;11.66;89.56
62791;BME280;48830;53.426;10.300;2023-05-16T04:55:03;101373.66;;;11.74;90.17
62791;BME280;48830;53.426;10.300;2023-05-16T04:57:29;101370.16;;;11.71;90.66
62791;BME280;48830;53.426;10.300;2023-05-16T04:59:54;101373.06;;;11.85;90.49
62791;BME280;48830;53.426;10.300;2023-05-16T05:02:20;101369.63;;;11.86;91.02
62791;BME280;48830;53.426;10.300;2023-05-16T05:04:45;101379.84;;;11.82;90.97
62791;BME280;48830;53.426;10.300;2023-05-16T05:07:11;101373.16;;;11.91;90.52
62791;BME280;48830;53.426;10.300;2023-05-16T05:09:36;101380.78;;;11.85;89.58
62791;BME280;48830;53.426;10.300;2023-05-16T05:12:02;101379.09;;;11.87;87.84
62791;BME280;48830;53.426;10.300;2023-05-16T05:14:27;101378.25;;;11.89;86.01
62791;BME280;48830;53.426;10.300;2023-05-16T05:16:53;101384.53;;;12.02;85.19
62791;BME280;48830;53.426;10.300;2023-05-16T05:19:19;101381.88;;;11.99;84.32
62791;BME280;48830;53.426;10.300;2023-05-16T05:21:44;101388.91;;;12.06;83.98
62791;BME280;48830;53.426;10.300;2023-05-16T05:24:10;101395.03;;;12.11;81.66
62791;BME280;48830;53.426;10.300;2023-05-16T05:26:35;101391.50;;;12.07;81.48
62791;BME280;48830;53.426;10.300;2023-05-16T05:29:01;101407.19;;;12.18;81.94
62791;BME280;48830;53.426;10.300;2023-05-16T05:31:26;101395.97;;;12.16;80.32
62791;BME280;48830;53.426;10.300;2023-05-16T05:33:52;101396.84;;;12.17;78.46
62791;BME280;48830;53.426;10.300;2023-05-16T05:36:17;101395.41;;;12.32;77.53
62791;BME280;48830;53.426;10.300;2023-05-16T05:38:43;101391.16;;;12.36;76.54
62791;BME280;48830;53.426;10.300;2023-05-16T05:41:08;101402.34;;;12.37;76.23
62791;BME280;48830;53.426;10.300;2023-05-16T05:43:36;101411.41;;;12.63;77.44
62791;BME280;48830;53.426;10.300;2023-05-16T05:46:01;101409.66;;;12.62;75.84
62791;BME280;48830;53.426;10.300;2023-05-16T05:48:27;101408.91;;;12.68;76.11
62791;BME280;48830;53.426;10.300;2023-05-16T05:50:54;101408.38;;;12.87;75.66
62791;BME280;48830;53.426;10.300;2023-05-16T05:53:20;101408.41;;;12.90;73.84
62791;BME280;48830;53.426;10.300;2023-05-16T05:55:45;101411.25;;;13.07;73.05
62791;BME280;48830;53.426;10.300;2023-05-16T05:58:11;101406.06;;;13.07;71.73
62791;BME280;48830;53.426;10.300;2023-05-16T06:00:37;101413.81;;;13.07;70.68
62791;BME280;48830;53.426;10.300;2023-05-16T06:03:02;101421.81;;;13.22;71.90
62791;BME280;48830;53.426;10.300;2023-05-16T06:05:28;101416.00;;;13.35;72.27
62791;BME280;48830;53.426;10.300;2023-05-16T06:07:53;101422.97;;;13.43;71.21
62791;BME280;48830;53.426;10.300;2023-05-16T06:10:18;101423.22;;;13.61;71.61
62791;BME280;48830;53.426;10.300;2023-05-16T06:12:44;101428.50;;;13.69;72.65
62791;BME280;48830;53.426;10.300;2023-05-16T06:15:09;101432.16;;;13.87;69.96
62791;BME280;48830;53.426;10.300;2023-05-16T06:17:35;101429.50;;;13.81;68.69
62791;BME280;48830;53.426;10.300;2023-05-16T06:20:00;101427.25;;;14.09;67.89
62791;BME280;48830;53.426;10.300;2023-05-16T06:22:26;101426.06;;;13.82;67.16
62791;BME280;48830;53.426;10.300;2023-05-16T06:24:51;101432.00;;;13.74;66.84
62791;BME280;48830;53.426;10.300;2023-05-16T06:27:17;101431.06;;;13.67;68.66
62791;BME280;48830;53.426;10.300;2023-05-16T06:29:42;101433.81;;;13.82;70.35
62791;BME280;48830;53.426;10.300;2023-05-16T06:32:08;101442.28;;;13.68;71.12
62791;BME280;48830;53.426;10.300;2023-05-16T06:34:33;101442.78;;;13.44;71.57
62791;BME280;48830;53.426;10.300;2023-05-16T06:36:59;101452.09;;;13.32;72.68
62791;BME280;48830;53.426;10.300;2023-05-16T06:39:26;101453.84;;;13.33;73.21
62791;BME280;48830;53.426;10.300;2023-05-16T06:41:52;101457.16;;;13.25;73.53
62791;BME280;48830;53.426;10.300;2023-05-16T06:44:21;101457.13;;;13.23;73.51
62791;BME280;48830;53.426;10.300;2023-05-16T06:46:46;101456.97;;;13.14;72.80
62791;BME280;48830;53.426;10.300;2023-05-16T06:49:12;101473.31;;;13.14;72.74
62791;BME280;48830;53.426;10.300;2023-05-16T06:51:38;101474.00;;;13.03;72.13
62791;BME280;48830;53.426;10.300;2023-05-16T06:54:04;101477.53;;;13.08;71.90
62791;BME280;48830;53.426;10.300;2023-05-16T06:56:30;101480.94;;;13.07;71.14
62791;BME280;48830;53.426;10.300;2023-05-16T06:58:55;101473.94;;;13.00;71.37
62791;BME280;48830;53.426;10.300;2023-05-16T07:01:21;101482.56;;;13.02;72.20
62791;BME280;48830;53.426;10.300;2023-05-16T07:03:46;101483.22;;;12.90;72.19
62791;BME280;48830;53.426;10.300;2023-05-16T07:06:12;101482.34;;;12.86;72.17
62791;BME280;48830;53.426;10.300;2023-05-16T07:08:37;101492.84;;;12.99;72.81
62791;BME280;48830;53.426;10.300;2023-05-16T07:11:03;101495.59;;;13.64;73.00
62791;BME280;48830;53.426;10.300;2023-05-16T07:13:28;101491.06;;;13.46;72.87
62791;BME280;48830;53.426;10.300;2023-05-16T07:15:53;101494.19;;;13.87;72.17
62791;BME280;48830;53.426;10.300;2023-05-16T07:18:19;101496.75;;;13.86;68.48
62791;BME280;48830;53.426;10.300;2023-05-16T07:20:44;101508.59;;;13.70;66.66
62791;BME280;48830;53.426;10.300;2023-05-16T07:23:10;101507.44;;;14.10;66.38
62791;BME280;48830;53.426;10.300;2023-05-16T07:25:36;101505.09;;;14.32;66.48
62791;BME280;48830;53.426;10.300;2023-05-16T07:28:02;101511.25;;;14.44;63.64
62791;BME280;48830;53.426;10.300;2023-05-16T07:30:27;101511.88;;;15.06;61.88
62791;BME280;48830;53.426;10.300;2023-05-16T07:32:53;101501.72;;;15.30;59.85
62791;BME280;48830;53.426;10.300;2023-05-16T07:35:19;101502.78;;;15.60;59.33
62791;BME280;48830;53.426;10.300;2023-05-16T07:37:44;101505.44;;;15.63;58.31
62791;BME280;48830;53.426;10.300;2023-05-16T07:40:10;101503.91;;;16.00;58.47
62791;BME280;48830;53.426;10.300;2023-05-16T07:42:35;101512.56;;;16.05;56.63
62791;BME280;48830;53.426;10.300;2023-05-16T07:45:01;101523.06;;;16.33;55.05
62791;BME280;48830;53.426;10.300;2023-05-16T07:47:27;101512.66;;;16.34;52.45
62791;BME280;48830;53.426;10.300;2023-05-16T07:49:52;101515.28;;;16.45;52.12
62791;BME280;48830;53.426;10.300;2023-05-16T07:52:18;101518.84;;;16.68;51.45
62791;BME280;48830;53.426;10.300;2023-05-16T07:54:45;101511.94;;;16.84;51.30
62791;BME280;48830;53.426;10.300;2023-05-16T07:57:13;101511.09;;;17.07;51.46
62791;BME280;48830;53.426;10.300;2023-05-16T07:59:39;101523.19;;;16.72;51.79
62791;BME280;48830;53.426;10.300;2023-05-16T08:02:05;101514.38;;;16.29;52.28
62791;BME280;48830;53.426;10.300;2023-05-16T08:04:30;101518.59;;;16.02;53.59
62791;BME280;48830;53.426;10.300;2023-05-16T08:06:55;101528.03;;;15.82;53.00
62791;BME280;48830;53.426;10.300;2023-05-16T08:09:21;101526.31;;;15.90;53.13
62791;BME280;48830;53.426;10.300;2023-05-16T08:11:46;101533.50;;;16.56;52.56
62791;BME280;48830;53.426;10.300;2023-05-16T08:14:12;101525.81;;;16.98;52.40
62791;BME280;48830;53.426;10.300;2023-05-16T08:16:37;101522.34;;;17.15;50.17
62791;BME280;48830;53.426;10.300;2023-05-16T08:19:03;101527.56;;;17.22;51.00
62791;BME280;48830;53.426;10.300;2023-05-16T08:21:28;101526.69;;;17.10;52.57
62791;BME280;48830;53.426;10.300;2023-05-16T08:23:54;101533.50;;;16.52;55.23
62791;BME280;48830;53.426;10.300;2023-05-16T08:26:20;101540.38;;;16.41;55.56
62791;BME280;48830;53.426;10.300;2023-05-16T08:28:46;101533.44;;;16.33;55.49
62791;BME280;48830;53.426;10.300;2023-05-16T08:31:12;101528.03;;;15.87;56.93
62791;BME280;48830;53.426;10.300;2023-05-16T08:33:37;101534.28;;;16.33;56.96
62791;BME280;48830;53.426;10.300;2023-05-16T08:36:03;101526.69;;;16.91;54.19
62791;BME280;48830;53.426;10.300;2023-05-16T08:38:28;101533.50;;;16.54;53.63
62791;BME280;48830;53.426;10.300;2023-05-16T08:40:54;101529.00;;;16.06;55.84
62791;BME280;48830;53.426;10.300;2023-05-16T08:43:20;101532.16;;;15.56;55.55
62791;BME280;48830;53.426;10.300;2023-05-16T08:45:45;101526.59;;;16.65;54.44
62791;BME280;48830;53.426;10.300;2023-05-16T08:48:11;101524.94;;;17.35;52.68
62791;BME280;48830;53.426;10.300;2023-05-16T08:50:38;101523.19;;;17.58;50.56
62791;BME280;48830;53.426;10.300;2023-05-16T08:53:06;101525.81;;;17.26;50.30
62791;BME280;48830;53.426;10.300;2023-05-16T08:55:32;101525.78;;;17.73;50.65
62791;BME280;48830;53.426;10.300;2023-05-16T08:57:59;101521.38;;;17.98;50.98
62791;BME280;48830;53.426;10.300;2023-05-16T09:00:25;101526.69;;;17.25;50.64
62791;BME280;48830;53.426;10.300;2023-05-16T09:02:51;101537.81;;;16.55;51.04
62791;BME280;48830;53.426;10.300;2023-05-16T09:05:17;101525.81;;;16.85;49.95
62791;BME280;48830;53.426;10.300;2023-05-16T09:07:44;101524.06;;;17.43;49.13
62791;BME280;48830;53.426;10.300;2023-05-16T09:10:11;101520.56;;;17.79;49.30
62791;BME280;48830;53.426;10.300;2023-05-16T09:12:38;101523.88;;;18.23;48.38
62791;BME280;48830;53.426;10.300;2023-05-16T09:15:05;101527.13;;;18.61;47.45
62791;BME280;48830;53.426;10.300;2023-05-16T09:17:40;101528.88;;;18.69;47.75
62791;BME280;48830;53.426;10.300;2023-05-16T09:22:39;101521.91;;;18.71;49.50
62791;BME280;48830;53.426;10.300;2023-05-16T09:25:05;101520.16;;;18.67;49.74
62791;BME280;48830;53.426;10.300;2023-05-16T09:27:31;101533.78;;;19.08;45.23
62791;BME280;48830;53.426;10.300;2023-05-16T09:29:57;101529.13;;;18.07;43.42
62791;BME280;48830;53.426;10.300;2023-05-16T09:32:23;101536.06;;;18.15;45.21
62791;BME280;48830;53.426;10.300;2023-05-16T09:34:51;101532.44;;;18.43;46.09
62791;BME280;48830;53.426;10.300;2023-05-16T09:37:17;101525.34;;;18.76;46.64
62791;BME280;48830;53.426;10.300;2023-05-16T09:39:53;101523.56;;;18.84;46.14
62791;BME280;48830;53.426;10.300;2023-05-16T09:42:21;101514.69;;;19.08;45.96
62791;BME280;48830;53.426;10.300;2023-05-16T09:44:51;101512.94;;;19.08;44.95
62791;BME280;48830;53.426;10.300;2023-05-16T09:47:19;101515.50;;;19.14;44.13
62791;BME280;48830;53.426;10.300;2023-05-16T09:49:45;101513.56;;;19.36;45.11
62791;BME280;48830;53.426;10.300;2023-05-16T09:52:12;101520.63;;;19.27;44.30
62791;BME280;48830;53.426;10.300;2023-05-16T09:54:38;101521.47;;;19.26;44.91
62791;BME280;48830;53.426;10.300;2023-05-16T09:57:04;101518.00;;;19.27;43.53
62791;BME280;48830;53.426;10.300;2023-05-16T09:59:34;101513.63;;;19.32;42.83
62791;BME280;48830;53.426;10.300;2023-05-16T10:02:00;101532.44;;;19.66;43.24
62791;BME280;48830;53.426;10.300;2023-05-16T10:04:25;101517.09;;;19.31;42.33
62791;BME280;48830;53.426;10.300;2023-05-16T10:06:54;101516.03;;;19.52;44.17
62791;BME280;48830;53.426;10.300;2023-05-16T10:09:23;101518.22;;;19.93;44.30
62791;BME280;48830;53.426;10.300;2023-05-16T10:11:50;101519.72;;;20.12;44.32
62791;BME280;48830;53.426;10.300;2023-05-16T10:14:17;101522.84;;;19.70;44.75
62791;BME280;48830;53.426;10.300;2023-05-16T10:16:45;101515.38;;;20.11;43.34
62791;BME280;48830;53.426;10.300;2023-05-16T10:19:11;101514.41;;;19.37;44.14
62791;BME280;48830;53.426;10.300;2023-05-16T10:21:39;101530.34;;;19.03;44.82
62791;BME280;48830;53.426;10.300;2023-05-16T10:24:09;101528.22;;;18.18;45.74
62791;BME280;48830;53.426;10.300;2023-05-16T10:26:36;101539.50;;;18.17;45.71
62791;BME280;48830;53.426;10.300;2023-05-16T10:29:02;101539.25;;;18.72;44.94
62791;BME280;48830;53.426;10.300;2023-05-16T10:31:27;101538.50;;;19.70;46.63
62791;BME280;48830;53.426;10.300;2023-05-16T10:33:55;101523.91;;;19.46;45.38
62791;BME280;48830;53.426;10.300;2023-05-16T10:36:21;101545.38;;;19.77;44.95
62791;BME280;48830;53.426;10.300;2023-05-16T10:38:47;101537.63;;;19.67;46.06
62791;BME280;48830;53.426;10.300;2023-05-16T10:41:14;101536.97;;;19.44;47.18
62791;BME280;48830;53.426;10.300;2023-05-16T10:43:43;101522.09;;;19.52;46.66
62791;BME280;48830;53.426;10.300;2023-05-16T10:46:10;101536.84;;;19.56;45.91
62791;BME280;48830;53.426;10.300;2023-05-16T10:48:38;101536.72;;;19.72;44.61
62791;BME280;48830;53.426;10.300;2023-05-16T10:51:36;101538.34;;;19.82;42.94
62791;BME280;48830;53.426;10.300;2023-05-16T10:54:08;101546.84;;;20.02;43.80
62791;BME280;48830;53.426;10.300;2023-05-16T10:56:35;101542.53;;;19.95;43.45
62791;BME280;48830;53.426;10.300;2023-05-16T10:59:01;101538.53;;;19.63;43.77
62791;BME280;48830;53.426;10.300;2023-05-16T11:06:28;101535.16;;;19.54;42.22
62791;BME280;48830;53.426;10.300;2023-05-16T11:09:20;101532.28;;;19.80;43.10
62791;BME280;48830;53.426;10.300;2023-05-16T11:11:54;101546.09;;;19.91;44.20
62791;BME280;48830;53.426;10.300;2023-05-16T11:19:45;101551.03;;;19.25;42.22
62791;BME280;48830;53.426;10.300;2023-05-16T11:25:04;101547.28;;;19.53;44.80
62791;BME280;48830;53.426;10.300;2023-05-16T11:27:35;101550.91;;;19.40;45.45
62791;BME280;48830;53.426;10.300;2023-05-16T11:32:29;101556.13;;;19.40;44.45
62791;BME280;48830;53.426;10.300;2023-05-16T11:34:56;101578.47;;;18.33;44.93
62791;BME280;48830;53.426;10.300;2023-05-16T11:37:22;101582.09;;;17.62;46.97
62791;BME280;48830;53.426;10.300;2023-05-16T11:39:48;101588.16;;;17.01;49.21
62791;BME280;48830;53.426;10.300;2023-05-16T11:42:14;101587.16;;;16.58;51.56
62791;BME280;48830;53.426;10.300;2023-05-16T11:44:39;101586.25;;;16.51;53.32
62791;BME280;48830;53.426;10.300;2023-05-16T11:47:05;101580.34;;;16.92;53.58
62791;BME280;48830;53.426;10.300;2023-05-16T11:49:32;101582.13;;;17.82;52.27
62791;BME280;48830;53.426;10.300;2023-05-16T11:51:59;101584.59;;;18.25;49.76
62791;BME280;48830;53.426;10.300;2023-05-16T11:54:25;101576.91;;;17.93;50.14
62791;BME280;48830;53.426;10.300;2023-05-16T11:56:51;101583.84;;;17.62;48.88
62791;BME280;48830;53.426;10.300;2023-05-16T11:59:17;101583.81;;;17.65;48.10
62791;BME280;48830;53.426;10.300;2023-05-16T12:01:43;101587.31;;;17.22;48.69
62791;BME280;48830;53.426;10.300;2023-05-16T12:04:10;101587.31;;;17.30;49.87
62791;BME280;48830;53.426;10.300;2023-05-16T12:06:37;101593.31;;;18.15;48.78
62791;BME280;48830;53.426;10.300;2023-05-16T12:09:10;101594.75;;;18.86;49.25
62791;BME280;48830;53.426;10.300;2023-05-16T12:11:37;101591.16;;;19.07;47.98
62791;BME280;48830;53.426;10.300;2023-05-16T12:14:04;101585.97;;;18.99;49.11
62791;BME280;48830;53.426;10.300;2023-05-16T12:16:30;101594.00;;;18.62;47.48
62791;BME280;48830;53.426;10.300;2023-05-16T12:18:56;101588.09;;;18.13;45.75
62791;BME280;48830;53.426;10.300;2023-05-16T12:21:21;101596.75;;;18.24;46.26
62791;BME280;48830;53.426;10.300;2023-05-16T12:23:47;101594.94;;;18.40;46.86
62791;BME280;48830;53.426;10.300;2023-05-16T12:26:12;101597.69;;;17.59;47.53
62791;BME280;48830;53.426;10.300;2023-05-16T12:28:38;101589.88;;;17.94;48.12
62791;BME280;48830;53.426;10.300;2023-05-16T12:31:10;101601.19;;;17.87;48.27
62791;BME280;48830;53.426;10.300;2023-05-16T12:33:43;101603.78;;;17.52;48.61
62791;BME280;48830;53.426;10.300;2023-05-16T12:36:12;101605.41;;;18.22;46.79
62791;BME280;48830;53.426;10.300;2023-05-16T12:38:39;101615.81;;;18.19;45.85
62791;BME280;48830;53.426;10.300;2023-05-16T12:41:05;101608.00;;;18.28;46.57
62791;BME280;48830;53.426;10.300;2023-05-16T12:43:31;101598.56;;;17.86;47.41
62791;BME280;48830;53.426;10.300;2023-05-16T12:45:57;101607.09;;;18.46;48.98
62791;BME280;48830;53.426;10.300;2023-05-16T12:48:23;101615.81;;;18.19;47.70
62791;BME280;48830;53.426;10.300;2023-05-16T12:50:54;101609.78;;;18.20;47.63
62791;BME280;48830;53.426;10.300;2023-05-16T12:53:19;101618.47;;;18.02;48.47
62791;BME280;48830;53.426;10.300;2023-05-16T12:55:45;101629.78;;;17.61;48.66
62791;BME280;48830;53.426;10.300;2023-05-16T12:58:11;101634.94;;;17.08;49.30
62791;BME280;48830;53.426;10.300;2023-05-16T13:00:37;101647.00;;;16.87;49.33
62791;BME280;48830;53.426;10.300;2023-05-16T13:03:04;101641.78;;;16.83;49.91